Terminal Aerodrome Forecast
Issued by NWS

Home | Current Version | Previous Version | Text Only | Print | Product List | Glossary On
Versions: 1 2 3 4 5 6 7 8 9 10 11 12 13 14 15 16 17 18 19
000
FTUS46 KSEW 250528
TAFHQM
TAF
KHQM 250528Z 2506/2606 26004KT 6SM BR SKC
     FM250800 25004KT 5SM BR BKN008
     FM252000 24013G20KT 6SM HZ SCT015
     FM260400 26009KT 5SM BR BKN008=

USA.gov is the U.S. government's official web portal to all federal, state and local government web resources and services.